Time;durP1;ratioP1;P1;durP2;ratioP2;P2;SDS_P1;SDS_P2;PMS_P1;PMS_P2;Temp;Humidity;BMP_temperature;BMP_pressure;BME280_temperature;BME280_humidity;BME280_pressure;Samples;Min_cycle;Max_cycle;Signal;HPM_P1;HPM_P2
2022/08/17 00:01:00;;;;;;;7.57;4.32;;;;;;;;;;4953417;28;20035;-73
2022/08/17 00:03:38;;;;;;;7.60;3.90;;;;;;;;;;4953564;28;20027;-74
2022/08/17 00:06:26;;;;;;;5.47;4.32;;;;;;;;;;4953535;28;20039;-74
2022/08/17 00:08:58;;;;;;;5.60;4.30;;;;;;;;;;4949029;28;20067;-74
2022/08/17 00:11:28;;;;;;;7.60;4.45;;;;;;;;;;4934415;29;20466;-74
2022/08/17 00:13:58;;;;;;;7.18;4.10;;;;;;;;;;4941934;28;20053;-73
2022/08/17 00:16:33;;;;;;;6.07;4.18;;;;;;;;;;4953413;28;20059;-73
2022/08/17 00:19:03;;;;;;;7.10;3.88;;;;;;;;;;4953595;28;20031;-73
2022/08/17 00:21:30;;;;;;;7.00;3.88;;;;;;;;;;4953406;28;20537;-73
2022/08/17 00:23:56;;;;;;;8.55;3.75;;;;;;;;;;4953385;28;20070;-73
2022/08/17 00:26:24;;;;;;;5.78;3.75;;;;;;;;;;4953204;28;20051;-73
2022/08/17 00:28:50;;;;;;;5.78;3.60;;;;;;;;;;4953326;28;20040;-74
2022/08/17 00:31:16;;;;;;;7.65;3.95;;;;;;;;;;4952323;28;20023;-72
2022/08/17 00:33:44;;;;;;;5.50;3.65;;;;;;;;;;4952815;28;20062;-74
2022/08/17 00:36:12;;;;;;;6.28;3.80;;;;;;;;;;4953266;28;20033;-73
2022/08/17 00:38:38;;;;;;;6.05;3.80;;;;;;;;;;4953503;28;20066;-72
2022/08/17 00:41:10;;;;;;;6.20;3.40;;;;;;;;;;4948644;28;20083;-73
2022/08/17 00:43:39;;;;;;;6.80;3.60;;;;;;;;;;4937763;29;20468;-73
2022/08/17 00:46:09;;;;;;;7.15;3.50;;;;;;;;;;4937316;29;20035;-73
2022/08/17 00:48:36;;;;;;;4.95;3.28;;;;;;;;;;4937470;29;20111;-74
2022/08/17 00:51:15;;;;;;;7.40;3.47;;;;;;;;;;4937233;29;20034;-72
2022/08/17 00:53:46;;;;;;;4.55;3.40;;;;;;;;;;4937657;29;20040;-73
2022/08/17 00:56:19;;;;;;;7.63;3.92;;;;;;;;;;4936282;29;20031;-73
2022/08/17 00:58:47;;;;;;;10.38;4.15;;;;;;;;;;4936894;28;20036;-73
2022/08/17 01:01:13;;;;;;;6.68;3.30;;;;;;;;;;4955867;28;20031;-74
2022/08/17 01:03:39;;;;;;;7.28;3.83;;;;;;;;;;4956287;29;20394;-73
2022/08/17 01:06:08;;;;;;;7.60;4.25;;;;;;;;;;4972478;28;20027;-73
2022/08/17 01:08:35;;;;;;;9.65;4.43;;;;;;;;;;4975484;28;20363;-73
2022/08/17 01:11:01;;;;;;;10.18;4.13;;;;;;;;;;4975062;28;20034;-73
2022/08/17 01:13:35;;;;;;;7.75;4.65;;;;;;;;;;4975594;28;20042;-73
2022/08/17 01:16:06;;;;;;;9.82;4.55;;;;;;;;;;4975363;28;20035;-73
2022/08/17 01:18:33;;;;;;;8.10;4.82;;;;;;;;;;4974693;28;20123;-72
2022/08/17 01:21:03;;;;;;;9.27;4.53;;;;;;;;;;4974699;28;20085;-73
2022/08/17 01:23:29;;;;;;;7.90;4.35;;;;;;;;;;4958691;28;20461;-73
2022/08/17 01:25:58;;;;;;;8.85;4.50;;;;;;;;;;4955616;28;20051;-73
2022/08/17 01:28:26;;;;;;;10.60;4.65;;;;;;;;;;4974227;28;20490;-77
2022/08/17 01:30:54;;;;;;;7.72;4.72;;;;;;;;;;4962279;28;20027;-75
2022/08/17 01:33:20;;;;;;;7.50;4.55;;;;;;;;;;4955436;28;20039;-77
2022/08/17 01:35:46;;;;;;;6.95;4.47;;;;;;;;;;4955507;28;20098;-75
2022/08/17 01:38:12;;;;;;;6.90;4.03;;;;;;;;;;4955329;28;20031;-75
2022/08/17 01:40:45;;;;;;;5.88;3.70;;;;;;;;;;4954470;28;20446;-73
2022/08/17 01:43:18;;;;;;;7.90;4.07;;;;;;;;;;4955516;28;20031;-73
2022/08/17 01:45:47;;;;;;;4.88;3.78;;;;;;;;;;4954776;28;20035;-74
2022/08/17 01:48:13;;;;;;;6.05;3.90;;;;;;;;;;4955335;28;20078;-74
2022/08/17 01:50:41;;;;;;;6.15;3.97;;;;;;;;;;4955497;28;20094;-74
2022/08/17 01:53:23;;;;;;;9.07;4.40;;;;;;;;;;4954961;28;20027;-74
2022/08/17 01:55:59;;;;;;;7.72;3.95;;;;;;;;;;4955181;28;20049;-72
2022/08/17 01:58:25;;;;;;;8.48;3.92;;;;;;;;;;4955528;28;20070;-73
2022/08/17 02:00:52;;;;;;;5.20;3.75;;;;;;;;;;4955356;28;20055;-74
2022/08/17 02:03:19;;;;;;;5.60;3.85;;;;;;;;;;4955511;28;20504;-74
2022/08/17 02:05:47;;;;;;;6.38;4.18;;;;;;;;;;4955434;28;20027;-74
2022/08/17 02:08:15;;;;;;;6.00;3.78;;;;;;;;;;4955283;28;20086;-74
2022/08/17 02:10:40;;;;;;;5.13;4.18;;;;;;;;;;4955020;28;20383;-72
2022/08/17 02:13:06;;;;;;;6.32;4.20;;;;;;;;;;4955221;28;20046;-74
2022/08/17 02:15:33;;;;;;;7.20;3.97;;;;;;;;;;4955116;28;20070;-73
2022/08/17 02:18:00;;;;;;;8.95;3.95;;;;;;;;;;4955233;28;20185;-73
2022/08/17 02:20:30;;;;;;;9.15;4.07;;;;;;;;;;4955095;28;20454;-72
2022/08/17 02:22:59;;;;;;;6.05;3.42;;;;;;;;;;4954813;28;20437;-73
2022/08/17 02:25:27;;;;;;;8.38;3.80;;;;;;;;;;4955010;28;20027;-74
2022/08/17 02:27:53;;;;;;;13.63;3.60;;;;;;;;;;4955054;28;20031;-74
2022/08/17 02:30:19;;;;;;;6.68;3.30;;;;;;;;;;4955094;28;20363;-73
2022/08/17 02:32:45;;;;;;;6.10;3.28;;;;;;;;;;4955136;28;20066;-72
2022/08/17 02:35:12;;;;;;;8.18;3.70;;;;;;;;;;4954965;28;20109;-73
2022/08/17 02:37:40;;;;;;;8.90;3.63;;;;;;;;;;4954682;28;20035;-73
2022/08/17 02:40:07;;;;;;;5.88;3.63;;;;;;;;;;4954921;28;20047;-72
2022/08/17 02:42:39;;;;;;;8.50;3.45;;;;;;;;;;4954765;28;20122;-73
2022/08/17 02:45:14;;;;;;;8.13;3.25;;;;;;;;;;4954674;28;20031;-73
2022/08/17 02:47:41;;;;;;;8.38;3.47;;;;;;;;;;4954624;28;20487;-73
2022/08/17 02:50:09;;;;;;;9.52;3.65;;;;;;;;;;4953997;28;20027;-73
2022/08/17 02:52:37;;;;;;;8.27;3.80;;;;;;;;;;4954356;28;20023;-73
2022/08/17 02:55:04;;;;;;;8.63;3.83;;;;;;;;;;4954463;28;20038;-73
2022/08/17 02:57:30;;;;;;;7.38;3.40;;;;;;;;;;4954610;28;20082;-74
2022/08/17 02:59:56;;;;;;;9.23;3.40;;;;;;;;;;4954313;28;20076;-74
2022/08/17 03:02:22;;;;;;;9.85;4.35;;;;;;;;;;4954224;28;20050;-73
2022/08/17 03:04:48;;;;;;;8.48;3.88;;;;;;;;;;4953150;28;20167;-73
2022/08/17 03:07:14;;;;;;;9.20;3.80;;;;;;;;;;4954349;28;20482;-74
2022/08/17 03:09:41;;;;;;;8.30;3.47;;;;;;;;;;4954342;28;20027;-73
2022/08/17 03:12:11;;;;;;;8.82;3.55;;;;;;;;;;4954474;28;20086;-73
2022/08/17 03:14:39;;;;;;;9.80;3.90;;;;;;;;;;4954076;28;20035;-74
2022/08/17 03:17:05;;;;;;;10.85;3.58;;;;;;;;;;4952528;28;20046;-74
2022/08/17 03:19:31;;;;;;;6.65;3.20;;;;;;;;;;4936413;28;20063;-74
2022/08/17 03:21:58;;;;;;;12.05;3.83;;;;;;;;;;4935083;29;20032;-73
2022/08/17 03:24:24;;;;;;;8.52;3.92;;;;;;;;;;4934861;29;20494;-74
2022/08/17 03:26:50;;;;;;;9.80;3.90;;;;;;;;;;4934592;29;20024;-73
2022/08/17 03:29:18;;;;;;;7.20;3.63;;;;;;;;;;4934702;29;20071;-74
2022/08/17 03:31:45;;;;;;;8.23;3.80;;;;;;;;;;4934493;29;20162;-74
2022/08/17 03:34:13;;;;;;;9.52;4.07;;;;;;;;;;4934477;29;20074;-73
2022/08/17 03:36:38;;;;;;;6.05;3.08;;;;;;;;;;4934497;29;20036;-72
2022/08/17 03:39:04;;;;;;;14.65;6.45;;;;;;;;;;4934469;29;20167;-73
2022/08/17 03:41:30;;;;;;;9.52;4.18;;;;;;;;;;4934382;29;20067;-72
2022/08/17 03:43:56;;;;;;;6.55;3.65;;;;;;;;;;4934766;29;20039;-74
2022/08/17 03:57:26;;;;;;;8.13;3.75;;;;;;;;;;4941633;28;20081;-74
2022/08/17 03:59:53;;;;;;;8.00;4.15;;;;;;;;;;4953641;28;20090;-73
2022/08/17 04:02:26;;;;;;;9.80;4.03;;;;;;;;;;4945549;28;20118;-73
2022/08/17 04:04:52;;;;;;;8.13;3.80;;;;;;;;;;4933947;29;20044;-74
2022/08/17 04:07:24;;;;;;;13.40;4.00;;;;;;;;;;4933799;29;20032;-74
2022/08/17 04:09:51;;;;;;;12.30;4.25;;;;;;;;;;4933766;28;20407;-73
2022/08/17 04:12:19;;;;;;;9.80;3.53;;;;;;;;;;4933857;29;20056;-73
2022/08/17 04:14:44;;;;;;;9.55;3.83;;;;;;;;;;4934233;29;20032;-73
2022/08/17 04:17:10;;;;;;;6.93;3.55;;;;;;;;;;4939405;29;20031;-74
2022/08/17 04:19:36;;;;;;;13.55;3.63;;;;;;;;;;4947247;28;20699;-72
2022/08/17 04:22:04;;;;;;;14.73;4.03;;;;;;;;;;4936358;29;20086;-73
2022/08/17 04:24:31;;;;;;;7.78;4.07;;;;;;;;;;4936915;29;20036;-73
2022/08/17 04:26:57;;;;;;;11.40;3.80;;;;;;;;;;4938412;29;20356;-74
2022/08/17 04:29:24;;;;;;;11.27;4.07;;;;;;;;;;4938494;29;20086;-74
2022/08/17 04:31:51;;;;;;;11.02;3.60;;;;;;;;;;4938225;28;20035;-73
2022/08/17 04:34:18;;;;;;;8.18;3.35;;;;;;;;;;4956140;28;20043;-73
2022/08/17 04:36:45;;;;;;;7.85;3.50;;;;;;;;;;4957134;28;20110;-73
2022/08/17 04:39:11;;;;;;;8.15;3.38;;;;;;;;;;4955530;28;20142;-73
2022/08/17 04:44:21;;;;;;;6.45;2.75;;;;;;;;;;4956325;28;20036;-74
2022/08/17 04:46:46;;;;;;;8.43;3.15;;;;;;;;;;4962341;28;20080;-74
2022/08/17 04:49:12;;;;;;;9.38;3.00;;;;;;;;;;4975088;28;20042;-74
2022/08/17 04:51:42;;;;;;;6.88;2.90;;;;;;;;;;4976708;28;20031;-74
2022/08/17 04:54:12;;;;;;;7.07;2.70;;;;;;;;;;4976051;28;20043;-74
2022/08/17 04:56:39;;;;;;;7.95;3.40;;;;;;;;;;4975553;28;20402;-74
2022/08/17 04:59:15;;;;;;;14.98;4.50;;;;;;;;;;4972093;28;20028;-74
2022/08/17 05:01:44;;;;;;;15.48;3.83;;;;;;;;;;4956633;28;20090;-74
2022/08/17 05:04:13;;;;;;;8.73;3.40;;;;;;;;;;4957159;28;20382;-74
2022/08/17 05:06:39;;;;;;;8.05;2.97;;;;;;;;;;4954782;28;20035;-72
2022/08/17 05:09:05;;;;;;;10.18;3.60;;;;;;;;;;4953880;28;20082;-73
2022/08/17 05:11:30;;;;;;;9.02;2.92;;;;;;;;;;4941617;29;20043;-72
2022/08/17 05:13:58;;;;;;;18.38;3.72;;;;;;;;;;4945017;28;20114;-73
2022/08/17 05:16:26;;;;;;;7.47;3.13;;;;;;;;;;4956911;28;20031;-73
2022/08/17 05:18:52;;;;;;;9.18;3.08;;;;;;;;;;4956966;28;20058;-73
2022/08/17 05:21:20;;;;;;;10.48;2.97;;;;;;;;;;4956770;28;20035;-74
2022/08/17 05:23:46;;;;;;;15.52;3.33;;;;;;;;;;4956951;28;20090;-73
2022/08/17 05:26:16;;;;;;;9.38;3.50;;;;;;;;;;4956343;28;20534;-75
2022/08/17 05:28:41;;;;;;;16.55;3.28;;;;;;;;;;4956311;28;20019;-75
2022/08/17 05:31:08;;;;;;;18.88;3.08;;;;;;;;;;4956844;28;20085;-75
2022/08/17 05:33:37;;;;;;;14.15;3.50;;;;;;;;;;4956799;28;20035;-72
2022/08/17 05:36:05;;;;;;;23.25;4.20;;;;;;;;;;4956785;28;20039;-74
2022/08/17 05:38:32;;;;;;;20.17;4.50;;;;;;;;;;4956865;28;20035;-75
2022/08/17 05:41:02;;;;;;;12.98;3.10;;;;;;;;;;4956539;28;20048;-72
2022/08/17 05:43:34;;;;;;;10.05;3.00;;;;;;;;;;4956559;28;20479;-73
2022/08/17 05:46:14;;;;;;;13.18;3.83;;;;;;;;;;4956421;28;20039;-74
2022/08/17 05:48:53;;;;;;;12.05;3.50;;;;;;;;;;4956713;28;20038;-73
2022/08/17 05:51:24;;;;;;;12.98;3.00;;;;;;;;;;4956577;28;20121;-74
2022/08/17 05:53:56;;;;;;;5.43;2.57;;;;;;;;;;4956388;28;20035;-74
2022/08/17 05:56:41;;;;;;;11.10;3.20;;;;;;;;;;4956146;28;20050;-74
2022/08/17 05:59:19;;;;;;;7.53;2.97;;;;;;;;;;4956277;28;20292;-74
2022/08/17 06:02:01;;;;;;;7.60;3.13;;;;;;;;;;4955993;28;20027;-74
2022/08/17 06:04:39;;;;;;;12.23;3.28;;;;;;;;;;4956146;28;20047;-75
2022/08/17 06:07:17;;;;;;;9.25;3.38;;;;;;;;;;4955813;28;20061;-75
2022/08/17 06:10:18;;;;;;;11.57;3.10;;;;;;;;;;4953320;28;20042;-76
2022/08/17 06:12:49;;;;;;;8.77;3.38;;;;;;;;;;4944607;28;20062;-75
2022/08/17 06:15:38;;;;;;;10.13;2.90;;;;;;;;;;4936708;29;20090;-74
2022/08/17 06:18:07;;;;;;;11.07;3.25;;;;;;;;;;4936482;29;20505;-72
2022/08/17 06:20:50;;;;;;;10.18;3.10;;;;;;;;;;4936806;29;20059;-71
2022/08/17 06:23:28;;;;;;;9.45;3.10;;;;;;;;;;4936690;29;20336;-73
2022/08/17 06:25:58;;;;;;;6.38;2.63;;;;;;;;;;4936565;29;20066;-73
2022/08/17 06:28:37;;;;;;;12.70;3.15;;;;;;;;;;4940736;29;20032;-74
2022/08/17 06:31:42;;;;;;;9.43;2.90;;;;;;;;;;4954221;28;20059;-74
2022/08/17 06:34:10;;;;;;;12.93;3.67;;;;;;;;;;4938171;28;20041;-75
2022/08/17 06:36:55;;;;;;;9.88;3.58;;;;;;;;;;4955470;28;20375;-73
2022/08/17 06:39:21;;;;;;;5.55;2.42;;;;;;;;;;4954693;28;20469;-73
2022/08/17 06:41:55;;;;;;;9.52;2.83;;;;;;;;;;4954906;28;20115;-75
2022/08/17 06:44:31;;;;;;;8.98;2.53;;;;;;;;;;4954889;28;20525;-73
2022/08/17 06:47:11;;;;;;;11.88;3.08;;;;;;;;;;4955080;28;20031;-74
2022/08/17 06:49:52;;;;;;;9.23;2.88;;;;;;;;;;4955288;28;20395;-76
2022/08/17 06:52:27;;;;;;;10.07;2.72;;;;;;;;;;4955348;28;20031;-76
2022/08/17 06:55:20;;;;;;;12.80;3.00;;;;;;;;;;4955171;28;20031;-76
2022/08/17 06:57:52;;;;;;;8.52;3.15;;;;;;;;;;4955311;28;20035;-78
2022/08/17 07:00:22;;;;;;;6.60;2.42;;;;;;;;;;4955118;28;20034;-77
2022/08/17 07:02:55;;;;;;;10.98;2.95;;;;;;;;;;4955134;28;20098;-75
2022/08/17 07:05:29;;;;;;;7.63;2.55;;;;;;;;;;4955159;28;20086;-74
2022/08/17 07:08:15;;;;;;;9.70;2.90;;;;;;;;;;4954810;28;20034;-76
2022/08/17 07:10:56;;;;;;;11.85;2.83;;;;;;;;;;4954491;28;20027;-75
2022/08/17 07:13:45;;;;;;;9.10;2.90;;;;;;;;;;4954722;28;20042;-79
2022/08/17 07:16:38;;;;;;;9.73;2.70;;;;;;;;;;4954900;28;20035;-78
2022/08/17 07:19:06;;;;;;;8.82;3.08;;;;;;;;;;4955118;28;20046;-78
2022/08/17 07:21:56;;;;;;;10.02;2.28;;;;;;;;;;4955143;28;20024;-80
2022/08/17 07:24:34;;;;;;;10.65;2.75;;;;;;;;;;4954741;28;20062;-78
2022/08/17 07:27:26;;;;;;;6.95;2.50;;;;;;;;;;4954679;28;20050;-77
2022/08/17 07:30:08;;;;;;;8.45;2.75;;;;;;;;;;4954685;28;20061;-80
2022/08/17 07:33:21;;;;;;;7.28;2.85;;;;;;;;;;4953033;28;20070;-79
2022/08/17 07:35:48;;;;;;;8.55;3.20;;;;;;;;;;4953989;28;20031;-79
2022/08/17 07:38:27;;;;;;;7.88;2.72;;;;;;;;;;4954370;28;20479;-79
2022/08/17 07:40:56;;;;;;;14.68;3.00;;;;;;;;;;4954073;28;20114;-81
2022/08/17 07:43:38;;;;;;;10.35;2.90;;;;;;;;;;4954251;28;20046;-77
2022/08/17 07:49:16;;;;;;;;;;;;;;;;;;4954173;28;20110;-78
2022/08/17 07:51:42;;;;;;;7.63;2.58;;;;;;;;;;4960278;28;19918;-77
2022/08/17 07:54:13;;;;;;;7.38;3.00;;;;;;;;;;4960384;28;20026;-79
2022/08/17 07:56:42;;;;;;;7.72;2.90;;;;;;;;;;4960642;28;20027;-74
2022/08/17 07:59:19;;;;;;;9.93;2.80;;;;;;;;;;4943763;28;20110;-78
2022/08/17 08:02:08;;;;;;;7.18;2.95;;;;;;;;;;4960428;28;20054;-82
2022/08/17 08:04:45;;;;;;;7.35;2.88;;;;;;;;;;4948256;28;20043;-75
2022/08/17 08:07:20;;;;;;;7.43;2.50;;;;;;;;;;4959794;28;20038;-77
2022/08/17 08:10:03;;;;;;;11.27;3.10;;;;;;;;;;4960506;28;20035;-77
2022/08/17 08:13:05;;;;;;;9.15;2.40;;;;;;;;;;4960642;28;20482;-78
2022/08/17 08:15:39;;;;;;;7.40;2.63;;;;;;;;;;4928014;28;20486;-80
2022/08/17 08:18:31;;;;;;;10.38;2.63;;;;;;;;;;4976099;28;20039;-79
2022/08/17 08:21:03;;;;;;;8.77;2.50;;;;;;;;;;4961008;28;20039;-82
2022/08/17 08:23:38;;;;;;;8.10;2.75;;;;;;;;;;4960488;28;20031;-81
2022/08/17 08:26:13;;;;;;;9.77;2.65;;;;;;;;;;4961228;28;20031;-79
2022/08/17 08:28:50;;;;;;;9.10;2.80;;;;;;;;;;4980136;28;20039;-80
2022/08/17 08:31:44;;;;;;;9.27;2.97;;;;;;;;;;4980413;28;20034;-83
2022/08/17 08:34:28;;;;;;;11.25;2.88;;;;;;;;;;4967119;28;20078;-79
2022/08/17 08:37:18;;;;;;;14.55;2.80;;;;;;;;;;4979372;28;20121;-78
2022/08/17 08:40:07;;;;;;;13.15;2.65;;;;;;;;;;4969823;28;20035;-82
2022/08/17 08:43:14;;;;;;;9.02;2.65;;;;;;;;;;4960221;28;20046;-81
2022/08/17 08:45:49;;;;;;;9.38;2.30;;;;;;;;;;4882624;29;20060;-80
2022/08/17 08:48:34;;;;;;;7.85;2.53;;;;;;;;;;4882626;29;20433;-82
2022/08/17 08:51:12;;;;;;;11.48;2.95;;;;;;;;;;4933480;28;20061;-85
2022/08/17 08:54:00;;;;;;;8.32;2.78;;;;;;;;;;4978853;28;20039;-83
2022/08/17 08:56:41;;;;;;;9.90;2.60;;;;;;;;;;4979043;28;20045;-80
2022/08/17 08:59:27;;;;;;;7.97;2.53;;;;;;;;;;4979332;28;20070;-82
2022/08/17 09:02:35;;;;;;;8.88;2.67;;;;;;;;;;4977648;28;20038;-76
2022/08/17 09:05:10;;;;;;;13.07;2.80;;;;;;;;;;4965192;28;20142;-77
2022/08/17 09:07:48;;;;;;;6.50;2.22;;;;;;;;;;4975937;28;20081;-76
2022/08/17 09:10:29;;;;;;;7.07;2.10;;;;;;;;;;4976507;28;20034;-79
2022/08/17 09:13:21;;;;;;;13.77;3.28;;;;;;;;;;4976333;28;20070;-78
2022/08/17 09:15:58;;;;;;;5.17;2.20;;;;;;;;;;4976091;28;20034;-83
2022/08/17 09:18:34;;;;;;;10.32;2.40;;;;;;;;;;4975521;28;20304;-75
2022/08/17 09:21:06;;;;;;;6.60;1.88;;;;;;;;;;4958648;28;20512;-74
2022/08/17 09:23:43;;;;;;;7.05;2.35;;;;;;;;;;4975774;28;20434;-75
2022/08/17 09:26:13;;;;;;;6.13;2.75;;;;;;;;;;4976134;28;20474;-78
2022/08/17 09:28:42;;;;;;;6.72;2.60;;;;;;;;;;4975857;28;20035;-78
2022/08/17 09:31:17;;;;;;;8.60;2.50;;;;;;;;;;4960993;28;20480;-76
2022/08/17 09:33:47;;;;;;;6.93;2.53;;;;;;;;;;4956212;28;20039;-78
2022/08/17 09:36:38;;;;;;;10.02;2.97;;;;;;;;;;4956473;28;20482;-72
2022/08/17 09:39:14;;;;;;;9.27;2.75;;;;;;;;;;4956409;28;20043;-73
2022/08/17 09:41:45;;;;;;;7.75;2.60;;;;;;;;;;4955927;28;20035;-72
2022/08/17 09:44:26;;;;;;;7.75;2.17;;;;;;;;;;4953676;28;20640;-73
2022/08/17 09:47:19;;;;;;;8.32;2.33;;;;;;;;;;4955296;28;20086;-72
2022/08/17 09:49:53;;;;;;;5.65;2.10;;;;;;;;;;4954975;28;20043;-71
2022/08/17 09:52:22;;;;;;;6.50;2.22;;;;;;;;;;4956081;29;20039;-74
2022/08/17 09:54:50;;;;;;;6.03;2.20;;;;;;;;;;4956369;28;20118;-70
2022/08/17 09:57:42;;;;;;;6.68;2.28;;;;;;;;;;4956481;28;20475;-72
2022/08/17 10:00:24;;;;;;;7.83;2.20;;;;;;;;;;4956471;28;20434;-73
2022/08/17 10:03:16;;;;;;;7.28;2.40;;;;;;;;;;4956096;28;20768;-72
2022/08/17 10:05:55;;;;;;;8.35;2.38;;;;;;;;;;4955769;28;20117;-71
2022/08/17 10:09:05;;;;;;;5.95;2.17;;;;;;;;;;4955728;28;20054;-72
2022/08/17 10:12:14;;;;;;;6.45;2.05;;;;;;;;;;4955662;28;20031;-72
2022/08/17 10:14:28;;;;;;;8.18;2.17;;;;;;;;;;4954964;28;20382;-72
2022/08/17 10:17:21;;;;;;;10.88;2.53;;;;;;;;;;4955063;28;20058;-73
2022/08/17 10:20:28;;;;;;;7.28;2.28;;;;;;;;;;4925622;28;20054;-72
2022/08/17 10:28:38;;;;;;;8.57;2.20;;;;;;;;;;4942967;28;20043;-73
2022/08/17 10:31:08;;;;;;;5.80;2.00;;;;;;;;;;4955592;28;20039;-75
2022/08/17 10:34:05;;;;;;;8.80;2.25;;;;;;;;;;4955700;28;20043;-72
2022/08/17 10:37:03;;;;;;;7.95;1.98;;;;;;;;;;4953475;28;20047;-72
2022/08/17 10:40:16;;;;;;;8.50;2.10;;;;;;;;;;4955497;28;20051;-71
2022/08/17 10:43:00;;;;;;;9.27;2.30;;;;;;;;;;4955464;28;20042;-72
2022/08/17 10:45:48;;;;;;;6.13;2.05;;;;;;;;;;4955203;28;20043;-71
2022/08/17 10:48:37;;;;;;;8.38;1.98;;;;;;;;;;4955187;28;20050;-72
2022/08/17 10:51:39;;;;;;;7.25;2.30;;;;;;;;;;4954995;28;20035;-74
2022/08/17 10:54:25;;;;;;;6.63;2.53;;;;;;;;;;4954959;28;20031;-72
2022/08/17 10:56:55;;;;;;;7.53;1.83;;;;;;;;;;4955169;28;20122;-74
2022/08/17 10:59:33;;;;;;;7.07;1.90;;;;;;;;;;4955174;28;20107;-72
2022/08/17 11:02:21;;;;;;;4.80;1.70;;;;;;;;;;4955176;28;20050;-72
2022/08/17 11:04:59;;;;;;;8.07;2.17;;;;;;;;;;4954960;28;20036;-72
2022/08/17 11:08:05;;;;;;;5.22;2.20;;;;;;;;;;4954773;28;20042;-74
2022/08/17 11:10:49;;;;;;;6.13;2.00;;;;;;;;;;4954744;28;20463;-73
2022/08/17 11:13:29;;;;;;;5.75;1.90;;;;;;;;;;4954649;28;20038;-74
2022/08/17 11:16:25;;;;;;;6.32;2.28;;;;;;;;;;4954660;28;20031;-73
2022/08/17 11:19:08;;;;;;;8.30;2.03;;;;;;;;;;4954976;28;20090;-73
2022/08/17 11:22:08;;;;;;;5.20;1.98;;;;;;;;;;4954587;28;20483;-73
2022/08/17 11:24:41;;;;;;;5.20;1.80;;;;;;;;;;4953653;28;20194;-73
2022/08/17 11:27:12;;;;;;;5.30;2.20;;;;;;;;;;4954326;28;20035;-73
2022/08/17 11:29:58;;;;;;;6.50;1.77;;;;;;;;;;4954730;28;20062;-73
2022/08/17 11:32:33;;;;;;;6.32;2.22;;;;;;;;;;4954532;28;20039;-73
2022/08/17 11:35:24;;;;;;;4.57;1.83;;;;;;;;;;4954548;28;20411;-73
2022/08/17 11:38:01;;;;;;;7.30;2.17;;;;;;;;;;4954033;28;20031;-73
2022/08/17 11:40:52;;;;;;;6.53;2.42;;;;;;;;;;4954176;28;20501;-73
2022/08/17 11:43:22;;;;;;;9.35;2.25;;;;;;;;;;4954342;28;20042;-73
2022/08/17 11:46:16;;;;;;;4.28;1.77;;;;;;;;;;4954670;28;20514;-73
2022/08/17 11:52:10;;;;;;;6.65;2.13;;;;;;;;;;4954350;28;20054;-73
2022/08/17 11:54:45;;;;;;;9.30;2.60;;;;;;;;;;4954387;28;20114;-75
2022/08/17 11:57:26;;;;;;;8.43;2.28;;;;;;;;;;4954411;28;20486;-74
2022/08/17 12:00:05;;;;;;;6.45;2.30;;;;;;;;;;4954505;28;20043;-74
2022/08/17 12:02:42;;;;;;;6.28;1.70;;;;;;;;;;4954609;28;20379;-72
2022/08/17 12:05:14;;;;;;;8.35;2.17;;;;;;;;;;4954548;28;20332;-73
2022/08/17 12:08:04;;;;;;;9.38;2.28;;;;;;;;;;4954474;28;20036;-73
2022/08/17 12:10:33;;;;;;;8.18;2.30;;;;;;;;;;4954135;28;20078;-73
2022/08/17 12:13:05;;;;;;;7.60;2.40;;;;;;;;;;4954260;28;20106;-73
2022/08/17 12:15:40;;;;;;;4.35;1.90;;;;;;;;;;4954127;28;20039;-73
2022/08/17 12:18:06;;;;;;;7.53;2.35;;;;;;;;;;4954104;28;20392;-74
2022/08/17 12:20:33;;;;;;;4.93;2.20;;;;;;;;;;4952318;28;20034;-74
2022/08/17 12:23:08;;;;;;;6.05;1.90;;;;;;;;;;4953956;29;20043;-74
2022/08/17 12:25:41;;;;;;;7.13;2.08;;;;;;;;;;4953904;29;20062;-75
2022/08/17 12:28:28;;;;;;;6.28;2.38;;;;;;;;;;4953830;29;20031;-74
2022/08/17 12:30:59;;;;;;;5.57;2.28;;;;;;;;;;4953642;29;20498;-74
2022/08/17 12:33:27;;;;;;;7.00;1.92;;;;;;;;;;4967443;28;20031;-74
2022/08/17 12:36:01;;;;;;;5.95;2.28;;;;;;;;;;4973163;28;20101;-74
2022/08/17 12:38:33;;;;;;;8.60;2.13;;;;;;;;;;4976763;28;20033;-74
2022/08/17 12:41:25;;;;;;;9.15;2.42;;;;;;;;;;4976170;28;20375;-75
2022/08/17 12:44:00;;;;;;;5.40;2.20;;;;;;;;;;4976058;28;20038;-74
2022/08/17 12:46:28;;;;;;;8.02;2.20;;;;;;;;;;4959336;28;20074;-75
2022/08/17 12:49:21;;;;;;;9.40;2.08;;;;;;;;;;4976085;28;20029;-75
2022/08/17 12:51:49;;;;;;;5.40;2.38;;;;;;;;;;4976373;28;20058;-74
2022/08/17 12:54:25;;;;;;;7.22;2.20;;;;;;;;;;4976457;28;20034;-74
2022/08/17 12:56:51;;;;;;;8.93;2.30;;;;;;;;;;4976526;28;20086;-74
2022/08/17 12:59:20;;;;;;;7.57;2.33;;;;;;;;;;4976018;28;20051;-74
2022/08/17 13:01:46;;;;;;;12.30;2.60;;;;;;;;;;4952985;28;20036;-74
2022/08/17 13:04:14;;;;;;;5.97;2.28;;;;;;;;;;4953796;28;20038;-74
2022/08/17 13:06:48;;;;;;;8.65;2.50;;;;;;;;;;4956855;28;20035;-73
2022/08/17 13:09:25;;;;;;;6.57;2.72;;;;;;;;;;4963982;28;20035;-77
2022/08/17 13:11:54;;;;;;;7.35;2.35;;;;;;;;;;4975141;28;20053;-78
2022/08/17 13:14:20;;;;;;;8.82;2.72;;;;;;;;;;4975538;28;20493;-76
2022/08/17 13:16:58;;;;;;;6.82;2.10;;;;;;;;;;4975508;28;20042;-71
2022/08/17 13:19:27;;;;;;;7.50;2.30;;;;;;;;;;4946889;28;20031;-72
2022/08/17 13:21:59;;;;;;;7.63;2.35;;;;;;;;;;4955999;29;20035;-71
2022/08/17 13:24:31;;;;;;;4.25;2.08;;;;;;;;;;4955667;28;20086;-75
2022/08/17 13:27:00;;;;;;;5.63;2.30;;;;;;;;;;4940692;29;20035;-71
2022/08/17 13:29:56;;;;;;;4.97;2.15;;;;;;;;;;4936948;29;20042;-71
2022/08/17 13:32:31;;;;;;;5.00;2.20;;;;;;;;;;4943762;28;20066;-72
2022/08/17 13:35:01;;;;;;;8.23;2.53;;;;;;;;;;4954789;28;20390;-74
2022/08/17 13:37:33;;;;;;;6.60;2.40;;;;;;;;;;4974807;28;20031;-72
2022/08/17 13:40:06;;;;;;;7.88;2.35;;;;;;;;;;4975315;28;20051;-71
2022/08/17 13:42:41;;;;;;;4.65;2.00;;;;;;;;;;4975149;28;20031;-72
2022/08/17 13:45:37;;;;;;;5.32;2.20;;;;;;;;;;4975330;28;20159;-73
2022/08/17 13:48:13;;;;;;;4.85;2.25;;;;;;;;;;4973808;28;20038;-72
2022/08/17 13:50:53;;;;;;;7.38;2.45;;;;;;;;;;4956764;28;20035;-70
2022/08/17 13:53:26;;;;;;;5.28;1.80;;;;;;;;;;4921755;29;20443;-72
2022/08/17 13:56:05;;;;;;;7.40;2.47;;;;;;;;;;4951801;28;20075;-72
2022/08/17 13:58:36;;;;;;;6.15;2.42;;;;;;;;;;4942479;28;20691;-72
2022/08/17 14:01:32;;;;;;;5.70;1.93;;;;;;;;;;4941893;28;20059;-72
2022/08/17 14:04:00;;;;;;;3.70;2.03;;;;;;;;;;4940378;28;20037;-72
2022/08/17 14:06:32;;;;;;;8.00;2.25;;;;;;;;;;4955383;28;20070;-71
2022/08/17 14:08:58;;;;;;;4.10;2.03;;;;;;;;;;4955361;28;20035;-70
2022/08/17 14:11:24;;;;;;;5.22;2.20;;;;;;;;;;4955751;28;20094;-70
2022/08/17 14:13:50;;;;;;;4.38;2.17;;;;;;;;;;4946251;28;20106;-71
2022/08/17 14:16:16;;;;;;;5.80;2.60;;;;;;;;;;4946512;29;20060;-71
2022/08/17 14:18:42;;;;;;;5.25;2.53;;;;;;;;;;4944419;28;20110;-73
2022/08/17 14:21:08;;;;;;;4.85;2.13;;;;;;;;;;4941907;29;20487;-72
2022/08/17 14:23:35;;;;;;;8.85;2.67;;;;;;;;;;4937556;28;20032;-72
2022/08/17 14:26:01;;;;;;;4.60;2.10;;;;;;;;;;4945525;28;20031;-71
2022/08/17 14:28:33;;;;;;;4.65;2.20;;;;;;;;;;4940919;28;20039;-72
2022/08/17 14:30:59;;;;;;;3.40;1.80;;;;;;;;;;4938815;28;20443;-71
2022/08/17 14:33:27;;;;;;;6.97;2.28;;;;;;;;;;4953411;28;20086;-72
2022/08/17 14:35:53;;;;;;;5.70;2.30;;;;;;;;;;4954313;28;20122;-73
2022/08/17 14:38:19;;;;;;;3.08;1.95;;;;;;;;;;4947870;28;20118;-71
2022/08/17 14:40:47;;;;;;;4.75;2.10;;;;;;;;;;4943413;28;20055;-72
2022/08/17 14:43:14;;;;;;;5.10;2.03;;;;;;;;;;4941661;28;20042;-71
2022/08/17 14:45:41;;;;;;;6.03;2.00;;;;;;;;;;4947836;28;20130;-73
2022/08/17 14:48:07;;;;;;;8.30;2.03;;;;;;;;;;4946560;28;20027;-74
2022/08/17 14:50:35;;;;;;;5.13;2.05;;;;;;;;;;4934688;29;20140;-73
2022/08/17 14:53:02;;;;;;;7.25;2.40;;;;;;;;;;4943243;28;20109;-75
2022/08/17 14:55:29;;;;;;;3.50;1.98;;;;;;;;;;4938107;28;20031;-72
2022/08/17 14:57:56;;;;;;;5.03;2.30;;;;;;;;;;4934575;29;20472;-72
2022/08/17 15:00:22;;;;;;;5.20;2.17;;;;;;;;;;4934450;29;20431;-73
2022/08/17 15:02:52;;;;;;;6.13;2.33;;;;;;;;;;4934910;29;20068;-72
2022/08/17 15:05:20;;;;;;;6.85;2.63;;;;;;;;;;4927561;28;20118;-74
2022/08/17 15:07:46;;;;;;;6.50;2.47;;;;;;;;;;4952811;28;20374;-73
2022/08/17 15:10:13;;;;;;;3.95;2.08;;;;;;;;;;4951613;28;20035;-73
2022/08/17 15:12:40;;;;;;;5.38;2.17;;;;;;;;;;4952727;28;20027;-74
2022/08/17 15:15:11;;;;;;;7.13;2.00;;;;;;;;;;4951310;28;20121;-72
2022/08/17 15:17:37;;;;;;;6.85;2.40;;;;;;;;;;4952339;28;20035;-72
2022/08/17 15:20:08;;;;;;;5.75;2.17;;;;;;;;;;4964969;28;20042;-72
2022/08/17 15:22:35;;;;;;;4.32;1.85;;;;;;;;;;4952446;28;20027;-72
2022/08/17 15:25:05;;;;;;;5.80;2.33;;;;;;;;;;4952501;28;20122;-71
2022/08/17 15:27:32;;;;;;;4.55;2.00;;;;;;;;;;4953299;28;20118;-71
2022/08/17 15:29:57;;;;;;;4.65;2.20;;;;;;;;;;4968921;28;20051;-72
2022/08/17 15:32:29;;;;;;;7.30;2.38;;;;;;;;;;4972754;28;20504;-72
2022/08/17 15:34:57;;;;;;;4.43;1.92;;;;;;;;;;4952615;28;20086;-70
2022/08/17 15:37:24;;;;;;;4.68;2.08;;;;;;;;;;4946280;28;20015;-71
2022/08/17 15:39:50;;;;;;;4.95;2.10;;;;;;;;;;4951057;28;20051;-71
2022/08/17 15:42:17;;;;;;;7.03;2.20;;;;;;;;;;4953046;28;20114;-72
2022/08/17 15:44:44;;;;;;;4.78;2.20;;;;;;;;;;4953034;28;20126;-72
2022/08/17 15:47:11;;;;;;;5.13;2.25;;;;;;;;;;4953169;28;20074;-72